Silly, Belgium
Current Conditions -  °F | °C
As of 11:25 PM on Tuesday 25 Nov 2014 (Local Time) from EBCV Reporting Station
Broken Clouds Broken Clouds  
Wind Chill: 39°   Ceiling: 10000
Heat Index: 43°   Visibility: 6mi
Dew Point: 37°   Wind: 6mph
Humidity: 81%   Direction: 80°E
Pressure: 30.03"   Gusts: NA
Location:  50.65°N, 3.92°E
Report Text: EBCV 252225Z AUTO 08005KT 9999 BKN100/// 06/03 Q1017 BLU
Loading
Personal Weather Stations






























Interactive Weather Map New forecast layout! Learn more

10-Day Weather Forecast

Advertisements
Track Severe Weather on mobile